sensor_id;sensor_type;location;lat;lon;timestamp;temperature;humidity
15107;DHT22;7654;45.308;-75.096;2022-12-29T00:01:23;-0.30;99.90
15107;DHT22;7654;45.308;-75.096;2022-12-29T00:03:53;-0.40;99.90
15107;DHT22;7654;45.308;-75.096;2022-12-29T00:06:25;-0.40;99.90
15107;DHT22;7654;45.308;-75.096;2022-12-29T00:08:57;-0.60;99.90
15107;DHT22;7654;45.308;-75.096;2022-12-29T00:11:27;-0.70;99.90
15107;DHT22;7654;45.308;-75.096;2022-12-29T00:13:58;-0.90;99.90
15107;DHT22;7654;45.308;-75.096;2022-12-29T00:16:52;-1.00;99.90
15107;DHT22;7654;45.308;-75.096;2022-12-29T00:19:23;-1.20;99.90
15107;DHT22;7654;45.308;-75.096;2022-12-29T00:22:13;-1.30;99.90
15107;DHT22;7654;45.308;-75.096;2022-12-29T00:25:01;-1.30;99.90
15107;DHT22;7654;45.308;-75.096;2022-12-29T00:27:48;-1.40;99.90
15107;DHT22;7654;45.308;-75.096;2022-12-29T00:30:36;-1.50;99.90
15107;DHT22;7654;45.308;-75.096;2022-12-29T00:33:28;-1.60;99.90
15107;DHT22;7654;45.308;-75.096;2022-12-29T00:36:19;-1.60;99.90
15107;DHT22;7654;45.308;-75.096;2022-12-29T00:38:56;-1.70;99.90
15107;DHT22;7654;45.308;-75.096;2022-12-29T00:41:44;-1.80;99.90
15107;DHT22;7654;45.308;-75.096;2022-12-29T00:44:43;-1.80;99.90
15107;DHT22;7654;45.308;-75.096;2022-12-29T00:47:14;-1.70;99.90
15107;DHT22;7654;45.308;-75.096;2022-12-29T00:49:44;-1.60;99.90
15107;DHT22;7654;45.308;-75.096;2022-12-29T00:52:14;-1.60;99.90
15107;DHT22;7654;45.308;-75.096;2022-12-29T00:54:46;-1.50;99.90
15107;DHT22;7654;45.308;-75.096;2022-12-29T00:57:17;-1.50;99.90
15107;DHT22;7654;45.308;-75.096;2022-12-29T00:59:48;-1.50;99.90
15107;DHT22;7654;45.308;-75.096;2022-12-29T01:02:18;-1.40;99.90
15107;DHT22;7654;45.308;-75.096;2022-12-29T01:04:49;-1.40;99.90
15107;DHT22;7654;45.308;-75.096;2022-12-29T01:07:19;-1.50;99.90
15107;DHT22;7654;45.308;-75.096;2022-12-29T01:09:51;-1.50;99.90
15107;DHT22;7654;45.308;-75.096;2022-12-29T01:12:38;-1.60;99.90
15107;DHT22;7654;45.308;-75.096;2022-12-29T01:15:14;-1.70;99.90
15107;DHT22;7654;45.308;-75.096;2022-12-29T01:17:45;-1.80;99.90
15107;DHT22;7654;45.308;-75.096;2022-12-29T01:20:15;-1.80;99.90
15107;DHT22;7654;45.308;-75.096;2022-12-29T01:22:46;-1.70;99.90
15107;DHT22;7654;45.308;-75.096;2022-12-29T01:25:21;-1.80;99.90
15107;DHT22;7654;45.308;-75.096;2022-12-29T01:27:51;-1.80;99.90
15107;DHT22;7654;45.308;-75.096;2022-12-29T01:30:21;-1.80;99.90
15107;DHT22;7654;45.308;-75.096;2022-12-29T01:32:52;-1.90;99.90
15107;DHT22;7654;45.308;-75.096;2022-12-29T01:35:24;-1.90;99.90
15107;DHT22;7654;45.308;-75.096;2022-12-29T01:37:54;-1.90;99.90
15107;DHT22;7654;45.308;-75.096;2022-12-29T01:40:26;-1.90;99.90
15107;DHT22;7654;45.308;-75.096;2022-12-29T01:43:08;-1.90;99.90
15107;DHT22;7654;45.308;-75.096;2022-12-29T01:45:44;-1.80;99.90
15107;DHT22;7654;45.308;-75.096;2022-12-29T01:48:16;-1.70;99.90
15107;DHT22;7654;45.308;-75.096;2022-12-29T01:50:51;-1.70;99.90
15107;DHT22;7654;45.308;-75.096;2022-12-29T01:53:26;-1.70;99.90
15107;DHT22;7654;45.308;-75.096;2022-12-29T01:56:01;-1.80;99.90
15107;DHT22;7654;45.308;-75.096;2022-12-29T01:58:37;-1.70;99.90
15107;DHT22;7654;45.308;-75.096;2022-12-29T02:01:09;-1.70;99.90
15107;DHT22;7654;45.308;-75.096;2022-12-29T02:03:40;-1.80;99.90
15107;DHT22;7654;45.308;-75.096;2022-12-29T02:06:12;-1.80;99.90
15107;DHT22;7654;45.308;-75.096;2022-12-29T02:08:46;-1.80;99.90
15107;DHT22;7654;45.308;-75.096;2022-12-29T02:11:19;-1.80;99.90
15107;DHT22;7654;45.308;-75.096;2022-12-29T02:13:49;-1.80;99.90
15107;DHT22;7654;45.308;-75.096;2022-12-29T02:16:35;-1.80;99.90
15107;DHT22;7654;45.308;-75.096;2022-12-29T02:22:33;-1.70;99.90
15107;DHT22;7654;45.308;-75.096;2022-12-29T02:25:32;-1.70;99.90
15107;DHT22;7654;45.308;-75.096;2022-12-29T02:28:30;-1.70;99.90
15107;DHT22;7654;45.308;-75.096;2022-12-29T02:31:17;-1.70;99.90
15107;DHT22;7654;45.308;-75.096;2022-12-29T02:33:57;-1.70;99.90
15107;DHT22;7654;45.308;-75.096;2022-12-29T02:36:38;-1.80;99.90
15107;DHT22;7654;45.308;-75.096;2022-12-29T02:39:15;-1.80;99.90
15107;DHT22;7654;45.308;-75.096;2022-12-29T02:41:59;-1.80;99.90
15107;DHT22;7654;45.308;-75.096;2022-12-29T02:44:36;-1.80;99.90
15107;DHT22;7654;45.308;-75.096;2022-12-29T02:47:20;-1.80;99.90
15107;DHT22;7654;45.308;-75.096;2022-12-29T02:49:57;-1.80;99.90
15107;DHT22;7654;45.308;-75.096;2022-12-29T02:52:34;-1.80;99.90
15107;DHT22;7654;45.308;-75.096;2022-12-29T02:55:07;-1.80;99.90
15107;DHT22;7654;45.308;-75.096;2022-12-29T02:57:37;-1.90;99.90
15107;DHT22;7654;45.308;-75.096;2022-12-29T03:00:10;-1.90;99.90
15107;DHT22;7654;45.308;-75.096;2022-12-29T03:03:08;-1.90;99.90
15107;DHT22;7654;45.308;-75.096;2022-12-29T03:05:58;-1.90;99.90
15107;DHT22;7654;45.308;-75.096;2022-12-29T03:08:34;-1.90;99.90
15107;DHT22;7654;45.308;-75.096;2022-12-29T03:11:11;-1.90;99.90
15107;DHT22;7654;45.308;-75.096;2022-12-29T03:14:02;-1.90;99.90
15107;DHT22;7654;45.308;-75.096;2022-12-29T03:16:57;-1.90;99.90
15107;DHT22;7654;45.308;-75.096;2022-12-29T03:19:34;-1.80;99.90
15107;DHT22;7654;45.308;-75.096;2022-12-29T03:22:07;-1.80;99.90
15107;DHT22;7654;45.308;-75.096;2022-12-29T03:25:01;-1.80;99.90
15107;DHT22;7654;45.308;-75.096;2022-12-29T03:27:35;-1.80;99.90
15107;DHT22;7654;45.308;-75.096;2022-12-29T03:30:07;-1.80;99.90
15107;DHT22;7654;45.308;-75.096;2022-12-29T03:32:42;-1.80;99.90
15107;DHT22;7654;45.308;-75.096;2022-12-29T03:35:17;-1.80;99.90
15107;DHT22;7654;45.308;-75.096;2022-12-29T03:37:51;-1.80;99.90
15107;DHT22;7654;45.308;-75.096;2022-12-29T03:40:24;-1.80;99.90
15107;DHT22;7654;45.308;-75.096;2022-12-29T03:42:55;-1.90;99.90
15107;DHT22;7654;45.308;-75.096;2022-12-29T03:45:26;-1.90;99.90
15107;DHT22;7654;45.308;-75.096;2022-12-29T03:47:56;-2.00;99.90
15107;DHT22;7654;45.308;-75.096;2022-12-29T03:50:27;-2.00;99.90
15107;DHT22;7654;45.308;-75.096;2022-12-29T03:52:58;-2.00;99.90
15107;DHT22;7654;45.308;-75.096;2022-12-29T03:55:28;-1.90;99.90
15107;DHT22;7654;45.308;-75.096;2022-12-29T03:57:58;-1.90;99.90
15107;DHT22;7654;45.308;-75.096;2022-12-29T04:00:28;-1.90;99.90
15107;DHT22;7654;45.308;-75.096;2022-12-29T04:02:58;-1.90;99.90
15107;DHT22;7654;45.308;-75.096;2022-12-29T04:05:31;-2.00;99.90
15107;DHT22;7654;45.308;-75.096;2022-12-29T04:08:01;-2.00;99.90
15107;DHT22;7654;45.308;-75.096;2022-12-29T04:10:31;-2.00;99.90
15107;DHT22;7654;45.308;-75.096;2022-12-29T04:13:02;-2.00;99.90
15107;DHT22;7654;45.308;-75.096;2022-12-29T04:15:32;-2.00;99.90
15107;DHT22;7654;45.308;-75.096;2022-12-29T04:18:03;-2.00;99.90
15107;DHT22;7654;45.308;-75.096;2022-12-29T04:20:36;-2.00;99.90
15107;DHT22;7654;45.308;-75.096;2022-12-29T04:23:23;-2.00;99.90
15107;DHT22;7654;45.308;-75.096;2022-12-29T04:25:53;-2.00;99.90
15107;DHT22;7654;45.308;-75.096;2022-12-29T04:28:23;-2.00;99.90
15107;DHT22;7654;45.308;-75.096;2022-12-29T04:30:54;-2.00;99.90
15107;DHT22;7654;45.308;-75.096;2022-12-29T04:33:24;-2.00;99.90
15107;DHT22;7654;45.308;-75.096;2022-12-29T04:35:56;-2.00;99.90
15107;DHT22;7654;45.308;-75.096;2022-12-29T04:38:26;-1.90;99.90
15107;DHT22;7654;45.308;-75.096;2022-12-29T04:40:59;-1.90;99.90
15107;DHT22;7654;45.308;-75.096;2022-12-29T04:43:29;-1.90;99.90
15107;DHT22;7654;45.308;-75.096;2022-12-29T04:46:00;-1.90;99.90
15107;DHT22;7654;45.308;-75.096;2022-12-29T04:48:30;-1.90;99.90
15107;DHT22;7654;45.308;-75.096;2022-12-29T04:51:02;-1.90;99.90
15107;DHT22;7654;45.308;-75.096;2022-12-29T04:53:32;-1.80;99.90
15107;DHT22;7654;45.308;-75.096;2022-12-29T04:56:03;-1.90;99.90
15107;DHT22;7654;45.308;-75.096;2022-12-29T04:58:33;-1.90;99.90
15107;DHT22;7654;45.308;-75.096;2022-12-29T05:01:04;-1.90;99.90
15107;DHT22;7654;45.308;-75.096;2022-12-29T05:03:34;-1.90;99.90
15107;DHT22;7654;45.308;-75.096;2022-12-29T05:06:07;-1.90;99.90
15107;DHT22;7654;45.308;-75.096;2022-12-29T05:08:37;-1.90;99.90
15107;DHT22;7654;45.308;-75.096;2022-12-29T05:11:07;-2.00;99.90
15107;DHT22;7654;45.308;-75.096;2022-12-29T05:13:37;-1.90;99.90
15107;DHT22;7654;45.308;-75.096;2022-12-29T05:16:08;-2.00;99.90
15107;DHT22;7654;45.308;-75.096;2022-12-29T05:18:38;-1.90;99.90
15107;DHT22;7654;45.308;-75.096;2022-12-29T05:21:10;-1.90;99.90
15107;DHT22;7654;45.308;-75.096;2022-12-29T05:23:40;-1.90;99.90
15107;DHT22;7654;45.308;-75.096;2022-12-29T05:26:10;-1.90;99.90
15107;DHT22;7654;45.308;-75.096;2022-12-29T05:28:41;-1.80;99.90
15107;DHT22;7654;45.308;-75.096;2022-12-29T05:31:11;-1.80;99.90
15107;DHT22;7654;45.308;-75.096;2022-12-29T05:33:41;-1.80;99.90
15107;DHT22;7654;45.308;-75.096;2022-12-29T05:36:13;-1.80;99.90
15107;DHT22;7654;45.308;-75.096;2022-12-29T05:38:45;-1.70;99.90
15107;DHT22;7654;45.308;-75.096;2022-12-29T05:41:15;-1.80;99.90
15107;DHT22;7654;45.308;-75.096;2022-12-29T05:43:45;-1.80;99.90
15107;DHT22;7654;45.308;-75.096;2022-12-29T05:46:15;-1.80;99.90
15107;DHT22;7654;45.308;-75.096;2022-12-29T05:48:45;-1.90;99.90
15107;DHT22;7654;45.308;-75.096;2022-12-29T05:51:17;-2.00;99.90
15107;DHT22;7654;45.308;-75.096;2022-12-29T05:53:47;-2.00;99.90
15107;DHT22;7654;45.308;-75.096;2022-12-29T05:56:17;-2.00;99.90
15107;DHT22;7654;45.308;-75.096;2022-12-29T05:58:47;-2.10;99.90
15107;DHT22;7654;45.308;-75.096;2022-12-29T06:01:17;-2.10;99.90
15107;DHT22;7654;45.308;-75.096;2022-12-29T06:03:48;-2.10;99.90
15107;DHT22;7654;45.308;-75.096;2022-12-29T06:06:20;-2.10;99.90
15107;DHT22;7654;45.308;-75.096;2022-12-29T06:08:50;-2.20;99.90
15107;DHT22;7654;45.308;-75.096;2022-12-29T06:11:20;-2.20;99.90
15107;DHT22;7654;45.308;-75.096;2022-12-29T06:13:50;-2.20;99.90
15107;DHT22;7654;45.308;-75.096;2022-12-29T06:16:20;-2.30;99.90
15107;DHT22;7654;45.308;-75.096;2022-12-29T06:18:51;-2.40;99.90
15107;DHT22;7654;45.308;-75.096;2022-12-29T06:21:23;-2.40;99.90
15107;DHT22;7654;45.308;-75.096;2022-12-29T06:23:53;-2.50;99.90
15107;DHT22;7654;45.308;-75.096;2022-12-29T06:26:23;-2.50;99.90
15107;DHT22;7654;45.308;-75.096;2022-12-29T06:28:53;-2.60;99.90
15107;DHT22;7654;45.308;-75.096;2022-12-29T06:31:23;-2.60;99.90
15107;DHT22;7654;45.308;-75.096;2022-12-29T06:33:54;-2.60;99.90
15107;DHT22;7654;45.308;-75.096;2022-12-29T06:36:25;-2.60;99.90
15107;DHT22;7654;45.308;-75.096;2022-12-29T06:38:56;-2.60;99.90
15107;DHT22;7654;45.308;-75.096;2022-12-29T06:41:26;-2.60;99.90
15107;DHT22;7654;45.308;-75.096;2022-12-29T06:43:59;-2.60;99.90
15107;DHT22;7654;45.308;-75.096;2022-12-29T06:46:29;-2.60;99.90
15107;DHT22;7654;45.308;-75.096;2022-12-29T06:48:59;-2.50;99.90
15107;DHT22;7654;45.308;-75.096;2022-12-29T06:51:31;-2.50;99.90
15107;DHT22;7654;45.308;-75.096;2022-12-29T06:54:01;-2.40;99.90
15107;DHT22;7654;45.308;-75.096;2022-12-29T06:56:31;-2.40;99.90
15107;DHT22;7654;45.308;-75.096;2022-12-29T06:59:01;-2.40;99.90
15107;DHT22;7654;45.308;-75.096;2022-12-29T07:01:31;-2.30;99.90
15107;DHT22;7654;45.308;-75.096;2022-12-29T07:04:02;-2.30;99.90
15107;DHT22;7654;45.308;-75.096;2022-12-29T07:06:35;-2.40;99.90
15107;DHT22;7654;45.308;-75.096;2022-12-29T07:09:05;-2.40;99.90
15107;DHT22;7654;45.308;-75.096;2022-12-29T07:11:35;-2.40;99.90
15107;DHT22;7654;45.308;-75.096;2022-12-29T07:14:05;-2.40;99.90
15107;DHT22;7654;45.308;-75.096;2022-12-29T07:16:35;-2.40;99.90
15107;DHT22;7654;45.308;-75.096;2022-12-29T07:19:06;-2.40;99.90
15107;DHT22;7654;45.308;-75.096;2022-12-29T07:21:38;-2.40;99.90
15107;DHT22;7654;45.308;-75.096;2022-12-29T07:24:14;-2.40;99.90
15107;DHT22;7654;45.308;-75.096;2022-12-29T07:26:44;-2.40;99.90
15107;DHT22;7654;45.308;-75.096;2022-12-29T07:29:15;-2.40;99.90
15107;DHT22;7654;45.308;-75.096;2022-12-29T07:31:45;-2.40;99.90
15107;DHT22;7654;45.308;-75.096;2022-12-29T07:34:15;-2.40;99.90
15107;DHT22;7654;45.308;-75.096;2022-12-29T07:36:47;-2.40;99.90
15107;DHT22;7654;45.308;-75.096;2022-12-29T07:39:17;-2.40;99.90
15107;DHT22;7654;45.308;-75.096;2022-12-29T07:41:47;-2.40;99.90
15107;DHT22;7654;45.308;-75.096;2022-12-29T07:44:17;-2.40;99.90
15107;DHT22;7654;45.308;-75.096;2022-12-29T07:46:47;-2.40;99.90
15107;DHT22;7654;45.308;-75.096;2022-12-29T07:49:23;-2.40;99.90
15107;DHT22;7654;45.308;-75.096;2022-12-29T07:51:55;-2.40;99.90
15107;DHT22;7654;45.308;-75.096;2022-12-29T07:54:25;-2.40;99.90
15107;DHT22;7654;45.308;-75.096;2022-12-29T07:56:55;-2.40;99.90
15107;DHT22;7654;45.308;-75.096;2022-12-29T07:59:25;-2.40;99.90
15107;DHT22;7654;45.308;-75.096;2022-12-29T08:01:56;-2.40;99.90
15107;DHT22;7654;45.308;-75.096;2022-12-29T08:04:26;-2.40;99.90
15107;DHT22;7654;45.308;-75.096;2022-12-29T08:06:58;-2.40;99.90
15107;DHT22;7654;45.308;-75.096;2022-12-29T08:09:28;-2.40;99.90
15107;DHT22;7654;45.308;-75.096;2022-12-29T08:11:58;-2.40;99.90
15107;DHT22;7654;45.308;-75.096;2022-12-29T08:14:29;-2.50;99.90
15107;DHT22;7654;45.308;-75.096;2022-12-29T08:16:59;-2.50;99.90
15107;DHT22;7654;45.308;-75.096;2022-12-29T08:19:30;-2.60;99.90
15107;DHT22;7654;45.308;-75.096;2022-12-29T08:22:01;-2.70;99.90
15107;DHT22;7654;45.308;-75.096;2022-12-29T08:24:32;-2.70;99.90
15107;DHT22;7654;45.308;-75.096;2022-12-29T08:27:02;-2.80;99.90
15107;DHT22;7654;45.308;-75.096;2022-12-29T08:29:46;-2.90;99.90
15107;DHT22;7654;45.308;-75.096;2022-12-29T08:32:16;-3.00;99.90
15107;DHT22;7654;45.308;-75.096;2022-12-29T08:34:46;-3.00;99.90
15107;DHT22;7654;45.308;-75.096;2022-12-29T08:37:18;-3.10;99.90
15107;DHT22;7654;45.308;-75.096;2022-12-29T08:39:57;-3.10;99.90
15107;DHT22;7654;45.308;-75.096;2022-12-29T08:42:28;-3.20;99.90
15107;DHT22;7654;45.308;-75.096;2022-12-29T08:44:59;-3.30;99.90
15107;DHT22;7654;45.308;-75.096;2022-12-29T08:47:29;-3.30;99.90
15107;DHT22;7654;45.308;-75.096;2022-12-29T08:49:59;-3.40;99.90
15107;DHT22;7654;45.308;-75.096;2022-12-29T08:52:32;-3.50;99.90
15107;DHT22;7654;45.308;-75.096;2022-12-29T08:55:02;-3.60;99.90
15107;DHT22;7654;45.308;-75.096;2022-12-29T08:57:32;-3.70;99.90
15107;DHT22;7654;45.308;-75.096;2022-12-29T09:00:03;-3.80;99.90
15107;DHT22;7654;45.308;-75.096;2022-12-29T09:02:33;-3.90;99.90
15107;DHT22;7654;45.308;-75.096;2022-12-29T09:05:04;-4.00;99.90
15107;DHT22;7654;45.308;-75.096;2022-12-29T09:07:36;-4.10;99.90
15107;DHT22;7654;45.308;-75.096;2022-12-29T09:10:06;-4.10;99.90
15107;DHT22;7654;45.308;-75.096;2022-12-29T09:12:37;-4.10;99.90
15107;DHT22;7654;45.308;-75.096;2022-12-29T09:15:08;-4.20;99.90
15107;DHT22;7654;45.308;-75.096;2022-12-29T09:17:39;-4.20;99.90
15107;DHT22;7654;45.308;-75.096;2022-12-29T09:20:14;-4.30;99.90
15107;DHT22;7654;45.308;-75.096;2022-12-29T09:22:47;-4.20;99.90
15107;DHT22;7654;45.308;-75.096;2022-12-29T09:25:17;-4.30;99.90
15107;DHT22;7654;45.308;-75.096;2022-12-29T09:27:48;-4.40;99.90
15107;DHT22;7654;45.308;-75.096;2022-12-29T09:30:18;-4.50;99.90
15107;DHT22;7654;45.308;-75.096;2022-12-29T09:32:50;-4.60;99.90
15107;DHT22;7654;45.308;-75.096;2022-12-29T09:35:22;-4.70;99.90
15107;DHT22;7654;45.308;-75.096;2022-12-29T09:37:53;-4.70;99.90
15107;DHT22;7654;45.308;-75.096;2022-12-29T09:40:27;-4.70;99.90
15107;DHT22;7654;45.308;-75.096;2022-12-29T09:46:09;-4.50;99.90
15107;DHT22;7654;45.308;-75.096;2022-12-29T09:48:45;-4.50;99.90
15107;DHT22;7654;45.308;-75.096;2022-12-29T09:51:20;-4.50;99.90
15107;DHT22;7654;45.308;-75.096;2022-12-29T09:53:55;-4.50;99.90
15107;DHT22;7654;45.308;-75.096;2022-12-29T09:56:27;-4.50;99.90
15107;DHT22;7654;45.308;-75.096;2022-12-29T09:59:00;-4.40;99.90
15107;DHT22;7654;45.308;-75.096;2022-12-29T10:01:36;-4.40;99.90
15107;DHT22;7654;45.308;-75.096;2022-12-29T10:04:08;-4.40;99.90
15107;DHT22;7654;45.308;-75.096;2022-12-29T10:06:42;-4.20;99.90
15107;DHT22;7654;45.308;-75.096;2022-12-29T10:09:41;-4.20;99.90
15107;DHT22;7654;45.308;-75.096;2022-12-29T10:12:25;-4.00;99.90
15107;DHT22;7654;45.308;-75.096;2022-12-29T10:15:03;-4.10;99.90
15107;DHT22;7654;45.308;-75.096;2022-12-29T10:17:40;-4.00;99.90
15107;DHT22;7654;45.308;-75.096;2022-12-29T10:20:25;-4.10;99.90
15107;DHT22;7654;45.308;-75.096;2022-12-29T10:23:18;-4.10;99.90
15107;DHT22;7654;45.308;-75.096;2022-12-29T10:25:54;-4.20;99.90
15107;DHT22;7654;45.308;-75.096;2022-12-29T10:28:34;-4.20;99.90
15107;DHT22;7654;45.308;-75.096;2022-12-29T10:31:09;-4.30;99.90
15107;DHT22;7654;45.308;-75.096;2022-12-29T10:33:43;-4.30;99.90
15107;DHT22;7654;45.308;-75.096;2022-12-29T10:36:15;-4.40;99.90
15107;DHT22;7654;45.308;-75.096;2022-12-29T10:38:54;-4.50;99.90
15107;DHT22;7654;45.308;-75.096;2022-12-29T10:41:36;-4.40;99.90
15107;DHT22;7654;45.308;-75.096;2022-12-29T10:44:11;-4.30;99.90
15107;DHT22;7654;45.308;-75.096;2022-12-29T10:46:43;-4.30;99.90
15107;DHT22;7654;45.308;-75.096;2022-12-29T10:49:16;-4.30;99.90
15107;DHT22;7654;45.308;-75.096;2022-12-29T10:51:49;-4.30;99.90
15107;DHT22;7654;45.308;-75.096;2022-12-29T10:54:25;-4.30;99.90
15107;DHT22;7654;45.308;-75.096;2022-12-29T10:57:01;-4.20;99.90
15107;DHT22;7654;45.308;-75.096;2022-12-29T10:59:35;-4.20;99.90
15107;DHT22;7654;45.308;-75.096;2022-12-29T11:02:26;-4.10;99.90
15107;DHT22;7654;45.308;-75.096;2022-12-29T11:05:03;-4.00;99.90
15107;DHT22;7654;45.308;-75.096;2022-12-29T11:07:37;-3.90;99.90
15107;DHT22;7654;45.308;-75.096;2022-12-29T11:10:19;-3.90;99.90
15107;DHT22;7654;45.308;-75.096;2022-12-29T11:12:59;-3.90;99.90
15107;DHT22;7654;45.308;-75.096;2022-12-29T11:15:39;-3.90;99.90
15107;DHT22;7654;45.308;-75.096;2022-12-29T11:18:20;-3.90;99.90
15107;DHT22;7654;45.308;-75.096;2022-12-29T11:20:52;-3.90;99.90
15107;DHT22;7654;45.308;-75.096;2022-12-29T11:23:26;-3.90;99.90
15107;DHT22;7654;45.308;-75.096;2022-12-29T11:26:18;-3.90;99.90
15107;DHT22;7654;45.308;-75.096;2022-12-29T11:29:21;-3.90;99.90
15107;DHT22;7654;45.308;-75.096;2022-12-29T11:31:53;-3.80;99.90
15107;DHT22;7654;45.308;-75.096;2022-12-29T11:34:25;-3.70;99.90
15107;DHT22;7654;45.308;-75.096;2022-12-29T11:37:01;-3.60;99.90
15107;DHT22;7654;45.308;-75.096;2022-12-29T11:39:36;-3.60;99.90
15107;DHT22;7654;45.308;-75.096;2022-12-29T11:42:14;-3.60;99.90
15107;DHT22;7654;45.308;-75.096;2022-12-29T11:44:48;-3.60;99.90
15107;DHT22;7654;45.308;-75.096;2022-12-29T11:47:26;-3.50;99.90
15107;DHT22;7654;45.308;-75.096;2022-12-29T11:50:00;-3.50;99.90
15107;DHT22;7654;45.308;-75.096;2022-12-29T11:52:33;-3.50;99.90
15107;DHT22;7654;45.308;-75.096;2022-12-29T11:55:16;-3.40;99.90
15107;DHT22;7654;45.308;-75.096;2022-12-29T11:57:47;-3.30;99.90
15107;DHT22;7654;45.308;-75.096;2022-12-29T12:00:22;-3.20;99.90
15107;DHT22;7654;45.308;-75.096;2022-12-29T12:02:56;-3.20;99.90
15107;DHT22;7654;45.308;-75.096;2022-12-29T12:05:36;-3.30;99.90
15107;DHT22;7654;45.308;-75.096;2022-12-29T12:08:11;-3.40;99.90
15107;DHT22;7654;45.308;-75.096;2022-12-29T12:10:53;-3.40;99.90
15107;DHT22;7654;45.308;-75.096;2022-12-29T12:13:29;-3.50;99.90
15107;DHT22;7654;45.308;-75.096;2022-12-29T12:16:06;-3.50;99.90
15107;DHT22;7654;45.308;-75.096;2022-12-29T12:18:44;-3.50;99.90
15107;DHT22;7654;45.308;-75.096;2022-12-29T12:21:22;-3.40;99.90
15107;DHT22;7654;45.308;-75.096;2022-12-29T12:24:07;-3.30;99.90
15107;DHT22;7654;45.308;-75.096;2022-12-29T12:26:54;-3.30;99.90
15107;DHT22;7654;45.308;-75.096;2022-12-29T12:29:34;-3.20;99.90
15107;DHT22;7654;45.308;-75.096;2022-12-29T12:32:13;-3.20;99.90
15107;DHT22;7654;45.308;-75.096;2022-12-29T12:34:46;-3.10;99.90
15107;DHT22;7654;45.308;-75.096;2022-12-29T12:37:38;-3.10;99.90
15107;DHT22;7654;45.308;-75.096;2022-12-29T12:40:35;-3.10;99.90
15107;DHT22;7654;45.308;-75.096;2022-12-29T12:43:28;-3.10;99.90
15107;DHT22;7654;45.308;-75.096;2022-12-29T12:46:13;-3.10;99.90
15107;DHT22;7654;45.308;-75.096;2022-12-29T12:49:07;-3.10;99.90
15107;DHT22;7654;45.308;-75.096;2022-12-29T12:51:45;-3.10;99.90
15107;DHT22;7654;45.308;-75.096;2022-12-29T12:54:31;-3.10;99.90
15107;DHT22;7654;45.308;-75.096;2022-12-29T12:57:13;-3.10;99.90
15107;DHT22;7654;45.308;-75.096;2022-12-29T12:59:56;-3.20;99.90
15107;DHT22;7654;45.308;-75.096;2022-12-29T13:02:37;-3.20;99.90
15107;DHT22;7654;45.308;-75.096;2022-12-29T13:05:35;-3.20;99.90
15107;DHT22;7654;45.308;-75.096;2022-12-29T13:08:26;-3.10;99.90
15107;DHT22;7654;45.308;-75.096;2022-12-29T13:11:10;-3.00;99.90
15107;DHT22;7654;45.308;-75.096;2022-12-29T13:14:04;-2.90;99.90
15107;DHT22;7654;45.308;-75.096;2022-12-29T13:16:41;-2.80;99.90
15107;DHT22;7654;45.308;-75.096;2022-12-29T13:19:16;-2.70;99.90
15107;DHT22;7654;45.308;-75.096;2022-12-29T13:21:58;-2.70;99.90
15107;DHT22;7654;45.308;-75.096;2022-12-29T13:24:42;-2.70;99.90
15107;DHT22;7654;45.308;-75.096;2022-12-29T13:27:20;-2.70;99.90
15107;DHT22;7654;45.308;-75.096;2022-12-29T13:29:59;-2.80;99.90
15107;DHT22;7654;45.308;-75.096;2022-12-29T13:32:42;-2.80;99.90
15107;DHT22;7654;45.308;-75.096;2022-12-29T13:35:27;-2.90;99.90
15107;DHT22;7654;45.308;-75.096;2022-12-29T13:38:09;-3.00;99.90
15107;DHT22;7654;45.308;-75.096;2022-12-29T13:40:49;-3.10;99.90
15107;DHT22;7654;45.308;-75.096;2022-12-29T13:43:21;-3.10;99.90
15107;DHT22;7654;45.308;-75.096;2022-12-29T13:45:58;-3.20;99.90
15107;DHT22;7654;45.308;-75.096;2022-12-29T13:48:36;-3.20;99.90
15107;DHT22;7654;45.308;-75.096;2022-12-29T13:51:08;-3.20;99.90
15107;DHT22;7654;45.308;-75.096;2022-12-29T13:53:55;-3.20;99.90
15107;DHT22;7654;45.308;-75.096;2022-12-29T13:56:35;-3.20;99.90
15107;DHT22;7654;45.308;-75.096;2022-12-29T13:59:16;-3.20;99.90
15107;DHT22;7654;45.308;-75.096;2022-12-29T14:01:53;-3.10;99.90
15107;DHT22;7654;45.308;-75.096;2022-12-29T14:04:27;-3.20;99.90
15107;DHT22;7654;45.308;-75.096;2022-12-29T14:07:01;-3.10;99.90
15107;DHT22;7654;45.308;-75.096;2022-12-29T14:09:42;-3.10;99.90
15107;DHT22;7654;45.308;-75.096;2022-12-29T14:12:29;-3.10;99.90
15107;DHT22;7654;45.308;-75.096;2022-12-29T14:15:05;-3.10;99.90
15107;DHT22;7654;45.308;-75.096;2022-12-29T14:17:37;-3.00;99.90
15107;DHT22;7654;45.308;-75.096;2022-12-29T14:20:18;-3.00;99.90
15107;DHT22;7654;45.308;-75.096;2022-12-29T14:22:59;-2.80;99.90
15107;DHT22;7654;45.308;-75.096;2022-12-29T14:25:57;-2.70;99.90
15107;DHT22;7654;45.308;-75.096;2022-12-29T14:28:31;-2.60;99.90
15107;DHT22;7654;45.308;-75.096;2022-12-29T14:31:02;-2.50;99.90
15107;DHT22;7654;45.308;-75.096;2022-12-29T14:33:33;-2.50;99.90
15107;DHT22;7654;45.308;-75.096;2022-12-29T14:36:20;-2.30;99.90
15107;DHT22;7654;45.308;-75.096;2022-12-29T14:38:50;-2.20;99.90
15107;DHT22;7654;45.308;-75.096;2022-12-29T14:41:33;-2.00;99.90
15107;DHT22;7654;45.308;-75.096;2022-12-29T14:44:17;-1.70;99.90
15107;DHT22;7654;45.308;-75.096;2022-12-29T14:46:55;-1.50;99.90
15107;DHT22;7654;45.308;-75.096;2022-12-29T14:49:30;-1.20;99.90
15107;DHT22;7654;45.308;-75.096;2022-12-29T14:52:13;-1.00;99.90
15107;DHT22;7654;45.308;-75.096;2022-12-29T14:54:49;-0.70;99.90
15107;DHT22;7654;45.308;-75.096;2022-12-29T14:57:26;-0.40;99.90
15107;DHT22;7654;45.308;-75.096;2022-12-29T15:00:04;-0.10;99.90
15107;DHT22;7654;45.308;-75.096;2022-12-29T15:02:39;0.20;99.90
15107;DHT22;7654;45.308;-75.096;2022-12-29T15:05:25;0.40;99.90
15107;DHT22;7654;45.308;-75.096;2022-12-29T15:07:57;0.60;99.90
15107;DHT22;7654;45.308;-75.096;2022-12-29T15:10:34;0.70;99.90
15107;DHT22;7654;45.308;-75.096;2022-12-29T15:13:15;0.80;99.90
15107;DHT22;7654;45.308;-75.096;2022-12-29T15:15:46;1.00;99.90
15107;DHT22;7654;45.308;-75.096;2022-12-29T15:18:24;1.20;99.90
15107;DHT22;7654;45.308;-75.096;2022-12-29T15:20:57;1.40;99.90
15107;DHT22;7654;45.308;-75.096;2022-12-29T15:23:28;1.50;99.90
15107;DHT22;7654;45.308;-75.096;2022-12-29T15:26:02;1.40;99.90
15107;DHT22;7654;45.308;-75.096;2022-12-29T15:28:40;1.70;99.90
15107;DHT22;7654;45.308;-75.096;2022-12-29T15:31:13;2.00;99.90
15107;DHT22;7654;45.308;-75.096;2022-12-29T15:33:44;1.90;99.90
15107;DHT22;7654;45.308;-75.096;2022-12-29T15:36:19;2.20;99.90
15107;DHT22;7654;45.308;-75.096;2022-12-29T15:38:50;2.50;99.90
15107;DHT22;7654;45.308;-75.096;2022-12-29T15:41:30;2.60;99.90
15107;DHT22;7654;45.308;-75.096;2022-12-29T15:44:28;3.00;99.90
15107;DHT22;7654;45.308;-75.096;2022-12-29T15:47:02;3.60;99.90
15107;DHT22;7654;45.308;-75.096;2022-12-29T15:49:33;3.90;99.90
15107;DHT22;7654;45.308;-75.096;2022-12-29T15:52:07;4.50;99.90
15107;DHT22;7654;45.308;-75.096;2022-12-29T15:54:38;4.40;99.90
15107;DHT22;7654;45.308;-75.096;2022-12-29T15:57:20;4.50;99.90
15107;DHT22;7654;45.308;-75.096;2022-12-29T15:59:53;4.50;99.90
15107;DHT22;7654;45.308;-75.096;2022-12-29T16:02:24;4.40;99.90
15107;DHT22;7654;45.308;-75.096;2022-12-29T16:04:55;4.40;99.90
15107;DHT22;7654;45.308;-75.096;2022-12-29T16:07:52;4.40;99.90
15107;DHT22;7654;45.308;-75.096;2022-12-29T16:10:27;4.50;99.90
15107;DHT22;7654;45.308;-75.096;2022-12-29T16:13:10;4.80;99.90
15107;DHT22;7654;45.308;-75.096;2022-12-29T16:15:47;4.90;99.90